Time;durP1;ratioP1;P1;durP2;ratioP2;P2;SDS_P1;SDS_P2;PMS_P1;PMS_P2;Temp;Humidity;BMP_temperature;BMP_pressure;BME280_temperature;BME280_humidity;BME280_pressure;Samples;Min_cycle;Max_cycle;Signal;HPM_P1;HPM_P2
2022/09/18 00:02:09;;;;;;;12.23;1.90;;;10.90;99.90;;;;;;4996484;28;20089;-66
2022/09/18 00:04:35;;;;;;;15.20;1.93;;;10.80;99.90;;;;;;4996208;28;20487;-66
2022/09/18 00:07:00;;;;;;;10.10;1.83;;;10.80;99.90;;;;;;4996331;28;20331;-66
2022/09/18 00:09:26;;;;;;;14.17;2.27;;;10.80;99.90;;;;;;4996288;28;20054;-67
2022/09/18 00:11:52;;;;;;;11.33;2.10;;;10.80;99.90;;;;;;4996250;28;20052;-67
2022/09/18 00:14:21;;;;;;;8.63;1.83;;;10.80;99.90;;;;;;4994883;28;20050;-67
2022/09/18 00:16:47;;;;;;;18.10;2.43;;;10.80;99.90;;;;;;4996231;28;20096;-67
2022/09/18 00:19:14;;;;;;;13.70;2.70;;;10.80;99.90;;;;;;4996012;28;20301;-67
2022/09/18 00:21:43;;;;;;;19.20;2.20;;;10.80;99.90;;;;;;4996123;28;20360;-67
2022/09/18 00:24:09;;;;;;;16.33;2.20;;;10.80;99.90;;;;;;4996007;28;20281;-67
2022/09/18 00:26:35;;;;;;;17.13;2.10;;;10.80;99.90;;;;;;4995976;28;20288;-67
2022/09/18 00:29:01;;;;;;;11.77;2.07;;;10.80;99.90;;;;;;4997066;28;20646;-67
2022/09/18 00:31:30;;;;;;;13.17;2.03;;;10.80;99.90;;;;;;4995866;28;20339;-67
2022/09/18 00:34:01;;;;;;;15.57;2.63;;;10.90;99.90;;;;;;4995735;28;20285;-65
2022/09/18 00:36:29;;;;;;;10.17;1.93;;;10.90;99.90;;;;;;4995710;28;20377;-65
2022/09/18 00:38:55;;;;;;;14.20;2.67;;;10.90;99.90;;;;;;4995958;28;20304;-65
2022/09/18 00:41:25;;;;;;;12.63;1.83;;;10.90;99.90;;;;;;4995400;28;20610;-66
2022/09/18 00:43:52;;;;;;;12.73;2.20;;;10.90;99.90;;;;;;4995888;28;20424;-65
2022/09/18 00:46:26;;;;;;;11.37;2.20;;;10.90;99.90;;;;;;4994591;28;20829;-68
2022/09/18 00:49:14;;;;;;;11.55;1.85;;;10.90;99.90;;;;;;4995656;28;20364;-65
2022/09/18 00:51:41;;;;;;;10.70;2.20;;;10.90;99.90;;;;;;4995455;28;20053;-65
2022/09/18 00:54:15;;;;;;;14.30;2.17;;;10.90;99.90;;;;;;4995888;28;20281;-65
2022/09/18 00:56:41;;;;;;;11.75;1.70;;;10.90;99.90;;;;;;4995371;28;20277;-65
2022/09/18 00:59:11;;;;;;;13.60;2.00;;;10.90;99.90;;;;;;4995326;28;20080;-65
2022/09/18 01:01:37;;;;;;;10.03;2.03;;;10.90;99.90;;;;;;4995999;28;20280;-65
2022/09/18 01:04:03;;;;;;;11.50;1.97;;;10.90;99.90;;;;;;4995729;28;20277;-65
2022/09/18 01:06:45;;;;;;;13.80;2.10;;;10.90;99.90;;;;;;4995175;28;20056;-65
2022/09/18 01:09:16;;;;;;;11.50;2.10;;;10.90;99.90;;;;;;4995752;28;20047;-65
2022/09/18 01:11:59;;;;;;;7.83;1.90;;;10.90;99.90;;;;;;4995491;28;20682;-65
2022/09/18 01:14:37;;;;;;;12.13;1.70;;;10.90;99.90;;;;;;4996048;28;20340;-65
2022/09/18 01:17:34;;;;;;;8.83;1.47;;;11.00;99.90;;;;;;4995014;28;20285;-65
2022/09/18 01:20:13;;;;;;;9.83;2.10;;;11.00;99.90;;;;;;4994929;28;20373;-65
2022/09/18 01:22:57;;;;;;;17.00;2.07;;;10.90;99.90;;;;;;4994922;28;20277;-65
2022/09/18 01:25:44;;;;;;;9.07;1.67;;;10.90;99.90;;;;;;4994869;28;20364;-65
2022/09/18 01:28:35;;;;;;;11.13;1.83;;;10.90;99.90;;;;;;4995017;28;20360;-65
2022/09/18 01:31:08;;;;;;;8.87;1.97;;;11.00;99.90;;;;;;4995344;28;20708;-65
2022/09/18 01:34:06;;;;;;;11.00;1.70;;;11.00;99.90;;;;;;4994686;28;20332;-65
2022/09/18 01:36:34;;;;;;;12.47;2.13;;;11.00;99.90;;;;;;4991444;28;20293;-65
2022/09/18 01:39:13;;;;;;;11.40;2.63;;;11.00;99.90;;;;;;4995416;28;20281;-65
2022/09/18 01:41:41;;;;;;;10.83;1.80;;;11.10;99.90;;;;;;4994816;28;20313;-65
2022/09/18 01:44:16;;;;;;;15.70;2.23;;;11.10;99.90;;;;;;4994484;28;20313;-65
2022/09/18 01:46:44;;;;;;;8.60;1.52;;;11.10;99.90;;;;;;4994700;28;20816;-65
2022/09/18 01:49:15;;;;;;;14.33;2.73;;;11.10;99.90;;;;;;4993307;28;20128;-65
2022/09/18 01:51:48;;;;;;;14.43;1.70;;;11.10;99.90;;;;;;4995185;28;20332;-65
2022/09/18 01:54:19;;;;;;;10.63;1.80;;;11.20;99.90;;;;;;4994335;28;20339;-65
2022/09/18 01:56:54;;;;;;;10.90;2.33;;;11.20;99.90;;;;;;4994407;28;20331;-65
2022/09/18 01:59:55;;;;;;;17.23;1.97;;;11.20;99.90;;;;;;4994557;28;20281;-65
2022/09/18 02:02:34;;;;;;;11.20;2.67;;;11.30;99.90;;;;;;4981118;28;20282;-65
2022/09/18 02:05:03;;;;;;;14.30;2.77;;;11.30;99.90;;;;;;4994153;28;20332;-65
2022/09/18 02:08:09;;;;;;;10.87;2.30;;;11.30;99.90;;;;;;4993766;28;20368;-65
2022/09/18 02:10:41;;;;;;;10.98;1.90;;;11.30;99.90;;;;;;4934448;29;20617;-65
2022/09/18 02:13:12;;;;;;;14.90;2.03;;;11.30;99.90;;;;;;4984835;28;20062;-65
2022/09/18 02:15:40;;;;;;;10.73;1.93;;;11.30;99.90;;;;;;4993746;28;20300;-65
2022/09/18 02:18:11;;;;;;;11.47;1.93;;;11.30;99.90;;;;;;4992910;28;20281;-65
2022/09/18 02:20:40;;;;;;;13.60;2.03;;;11.30;99.90;;;;;;4994076;28;20280;-65
2022/09/18 02:23:07;;;;;;;11.93;1.60;;;11.30;99.90;;;;;;4994018;28;20289;-67
2022/09/18 02:25:47;;;;;;;10.87;1.83;;;11.30;99.90;;;;;;4993695;28;20791;-67
2022/09/18 02:28:16;;;;;;;14.13;2.07;;;11.40;99.90;;;;;;4994238;28;20625;-67
2022/09/18 02:30:42;;;;;;;13.53;1.60;;;11.40;99.90;;;;;;4993957;28;20292;-67
2022/09/18 02:33:27;;;;;;;12.83;2.00;;;11.40;99.90;;;;;;4993296;28;20376;-67
2022/09/18 02:36:32;;;;;;;9.50;1.80;;;11.40;99.90;;;;;;4993932;28;20293;-67
2022/09/18 02:39:12;;;;;;;13.30;2.37;;;11.40;99.90;;;;;;4993886;28;20109;-67
2022/09/18 02:41:50;;;;;;;10.73;2.07;;;11.40;99.90;;;;;;4994728;28;20286;-67
2022/09/18 02:44:32;;;;;;;11.13;2.07;;;11.40;99.90;;;;;;4993909;28;20285;-67
2022/09/18 02:47:25;;;;;;;11.33;2.10;;;11.40;99.90;;;;;;4994429;28;20285;-67
2022/09/18 02:50:17;;;;;;;9.43;1.60;;;11.40;99.90;;;;;;4993878;28;20277;-67
2022/09/18 02:52:48;;;;;;;11.50;1.87;;;11.40;99.90;;;;;;4994094;28;20288;-67
2022/09/18 02:55:17;;;;;;;11.27;1.60;;;11.30;99.90;;;;;;4993765;28;20301;-67
2022/09/18 02:58:10;;;;;;;8.67;1.30;;;11.30;99.90;;;;;;4993676;28;20282;-67
2022/09/18 03:00:40;;;;;;;7.47;1.20;;;11.30;99.90;;;;;;4993732;28;20293;-67
2022/09/18 03:03:12;;;;;;;11.07;1.57;;;11.30;99.90;;;;;;4992470;28;20424;-67
2022/09/18 03:05:38;;;;;;;10.27;2.17;;;11.30;99.90;;;;;;4993643;28;20284;-67
2022/09/18 03:08:03;;;;;;;11.43;1.50;;;11.20;99.90;;;;;;4993659;28;20353;-67
2022/09/18 03:10:30;;;;;;;8.50;1.43;;;11.20;99.90;;;;;;4992415;28;20049;-67
2022/09/18 03:12:55;;;;;;;9.80;1.60;;;11.30;99.90;;;;;;4994052;28;20105;-67
2022/09/18 03:15:21;;;;;;;9.73;1.30;;;11.20;99.90;;;;;;4993473;28;20302;-67
2022/09/18 03:17:47;;;;;;;8.27;1.27;;;11.20;99.90;;;;;;4995774;28;20047;-67
2022/09/18 03:20:13;;;;;;;6.90;1.37;;;11.20;99.90;;;;;;4996937;28;20046;-67
2022/09/18 03:22:38;;;;;;;6.80;1.40;;;11.20;99.90;;;;;;4997140;28;20050;-67
2022/09/18 03:25:05;;;;;;;8.97;1.67;;;11.20;99.90;;;;;;4997422;28;20278;-68
2022/09/18 03:27:30;;;;;;;9.57;2.20;;;11.20;99.90;;;;;;4996971;28;20075;-67
2022/09/18 03:29:56;;;;;;;10.30;1.30;;;11.20;99.90;;;;;;4997006;28;20290;-67
2022/09/18 03:32:22;;;;;;;9.10;1.70;;;11.20;99.90;;;;;;4997244;28;20042;-67
2022/09/18 03:34:47;;;;;;;9.57;2.27;;;11.10;99.90;;;;;;4997413;28;20046;-67
2022/09/18 03:37:13;;;;;;;8.70;1.37;;;11.10;99.90;;;;;;4996932;28;20046;-67
2022/09/18 03:39:39;;;;;;;7.10;1.57;;;11.10;99.90;;;;;;4996901;28;20046;-65
2022/09/18 03:42:05;;;;;;;11.23;2.70;;;11.10;99.90;;;;;;4997122;28;20387;-65
2022/09/18 03:44:30;;;;;;;7.97;1.30;;;11.10;99.90;;;;;;4997610;28;20499;-65
2022/09/18 03:46:56;;;;;;;10.73;1.60;;;11.10;99.90;;;;;;4996805;28;20133;-65
2022/09/18 03:49:22;;;;;;;7.27;1.30;;;11.10;99.90;;;;;;4996757;28;20414;-65
2022/09/18 03:51:47;;;;;;;10.63;1.37;;;11.10;99.90;;;;;;4996705;28;20087;-65
2022/09/18 03:54:13;;;;;;;7.83;1.53;;;11.10;99.90;;;;;;4996593;28;20100;-65
2022/09/18 03:56:39;;;;;;;8.00;1.53;;;11.10;99.90;;;;;;4997047;28;20050;-66
2022/09/18 03:59:05;;;;;;;13.53;1.60;;;11.10;99.90;;;;;;4996618;28;20046;-65
2022/09/18 04:01:30;;;;;;;9.60;1.90;;;11.10;99.90;;;;;;4996559;28;20089;-66
2022/09/18 04:03:56;;;;;;;15.10;1.83;;;11.10;99.90;;;;;;4996195;28;20114;-66
2022/09/18 04:06:22;;;;;;;10.80;1.77;;;11.10;99.90;;;;;;4996507;28;20046;-65
2022/09/18 04:08:48;;;;;;;11.03;2.20;;;11.10;99.90;;;;;;4996342;28;20134;-66
2022/09/18 04:11:14;;;;;;;12.40;2.03;;;11.20;99.90;;;;;;4996436;28;20050;-66
2022/09/18 04:13:40;;;;;;;12.23;1.97;;;11.20;99.90;;;;;;4996768;28;20277;-67
2022/09/18 04:16:06;;;;;;;13.50;1.90;;;11.20;99.90;;;;;;4996144;28;20050;-65
2022/09/18 04:18:31;;;;;;;8.13;1.57;;;11.20;99.90;;;;;;4996273;28;20046;-65
2022/09/18 04:20:57;;;;;;;9.43;1.83;;;11.20;99.90;;;;;;4996149;28;20116;-66
2022/09/18 04:23:23;;;;;;;8.87;1.43;;;11.20;99.90;;;;;;4996392;28;20047;-66
2022/09/18 04:25:48;;;;;;;11.07;1.70;;;11.20;99.90;;;;;;4996613;28;20047;-66
2022/09/18 04:28:14;;;;;;;12.30;1.40;;;11.20;99.90;;;;;;4995690;28;20066;-65
2022/09/18 04:30:40;;;;;;;9.23;1.67;;;11.20;99.90;;;;;;4995701;28;20097;-65
2022/09/18 04:33:06;;;;;;;9.70;1.30;;;11.20;99.90;;;;;;4995940;28;20043;-66
2022/09/18 04:35:32;;;;;;;9.00;1.20;;;11.20;99.90;;;;;;4995871;28;20062;-65
2022/09/18 04:37:58;;;;;;;9.00;1.30;;;11.20;99.90;;;;;;4995836;28;20281;-65
2022/09/18 04:40:23;;;;;;;11.47;1.43;;;11.20;99.90;;;;;;4995797;28;20046;-65
2022/09/18 04:42:49;;;;;;;9.10;1.90;;;11.20;99.90;;;;;;4995652;28;20054;-66
2022/09/18 04:45:15;;;;;;;9.70;1.50;;;11.20;99.90;;;;;;4995670;28;20050;-66
2022/09/18 04:47:42;;;;;;;4.50;1.10;;;11.20;99.90;;;;;;4996399;28;20132;-65
2022/09/18 04:50:09;;;;;;;4.27;1.10;;;11.20;99.90;;;;;;4995236;28;20057;-65
2022/09/18 04:52:35;;;;;;;7.43;1.13;;;11.20;99.90;;;;;;4995513;28;20368;-65
2022/09/18 04:55:01;;;;;;;9.13;1.27;;;11.20;99.90;;;;;;4995456;28;20385;-65
2022/09/18 04:57:26;;;;;;;7.03;1.30;;;11.10;99.90;;;;;;4995450;28;20054;-65
2022/09/18 04:59:52;;;;;;;8.60;1.00;;;11.10;99.90;;;;;;4995004;28;20066;-66
2022/09/18 05:02:18;;;;;;;6.43;1.33;;;11.10;99.90;;;;;;4995336;28;20085;-65
2022/09/18 05:04:44;;;;;;;6.57;1.33;;;11.10;99.90;;;;;;4995274;28;20054;-66
2022/09/18 05:07:10;;;;;;;5.73;1.30;;;11.10;99.90;;;;;;4994047;28;20293;-66
2022/09/18 05:09:35;;;;;;;6.13;1.03;;;11.10;99.90;;;;;;4994028;28;20050;-66
2022/09/18 05:12:02;;;;;;;6.87;1.60;;;11.20;99.90;;;;;;4995381;28;20103;-66
2022/09/18 05:14:27;;;;;;;8.03;1.40;;;11.20;99.90;;;;;;4995606;28;20104;-66
2022/09/18 05:16:55;;;;;;;11.70;1.90;;;11.20;99.90;;;;;;4995089;28;20755;-65
2022/09/18 05:19:21;;;;;;;12.43;1.53;;;11.20;99.90;;;;;;4995011;28;20073;-66
2022/09/18 05:21:50;;;;;;;7.07;1.40;;;11.20;99.90;;;;;;4994898;28;20289;-69
2022/09/18 05:24:16;;;;;;;8.97;1.40;;;11.20;99.90;;;;;;4995716;28;20364;-66
2022/09/18 05:26:43;;;;;;;18.47;2.43;;;11.20;99.90;;;;;;4994907;28;20371;-66
2022/09/18 05:29:09;;;;;;;8.63;1.67;;;11.20;99.90;;;;;;4994860;28;20348;-66
2022/09/18 05:31:34;;;;;;;7.73;1.53;;;11.20;99.90;;;;;;4994874;28;20277;-66
2022/09/18 05:34:00;;;;;;;11.77;2.00;;;11.20;99.90;;;;;;4994847;28;20116;-66
2022/09/18 05:36:26;;;;;;;12.53;2.03;;;11.20;99.90;;;;;;4994737;28;20553;-66
2022/09/18 05:38:51;;;;;;;8.53;1.87;;;11.30;99.90;;;;;;4994765;28;20447;-66
2022/09/18 05:41:17;;;;;;;10.07;1.60;;;11.20;99.90;;;;;;4994425;28;20046;-66
2022/09/18 05:43:43;;;;;;;12.77;1.80;;;11.30;99.90;;;;;;4995168;28;20050;-66
2022/09/18 05:46:10;;;;;;;11.40;1.47;;;11.30;99.90;;;;;;4994583;28;20054;-66
2022/09/18 05:48:35;;;;;;;13.70;2.03;;;11.30;99.90;;;;;;4995107;28;20280;-66
2022/09/18 05:51:01;;;;;;;11.90;1.77;;;11.30;99.90;;;;;;4994494;28;20757;-66
2022/09/18 05:53:27;;;;;;;12.23;1.80;;;11.30;99.90;;;;;;4994560;28;20057;-66
2022/09/18 05:55:52;;;;;;;11.77;2.07;;;11.30;99.90;;;;;;4994390;28;20034;-66
2022/09/18 05:58:19;;;;;;;12.83;2.33;;;11.30;99.90;;;;;;4994473;28;20089;-66
2022/09/18 06:00:46;;;;;;;10.37;1.83;;;11.30;99.90;;;;;;4994446;28;20058;-66
2022/09/18 06:03:14;;;;;;;12.30;1.80;;;11.30;99.90;;;;;;4995146;28;20286;-66
2022/09/18 06:05:40;;;;;;;9.23;1.97;;;11.30;99.90;;;;;;4994382;28;20281;-66
2022/09/18 06:08:09;;;;;;;12.00;1.90;;;11.30;99.90;;;;;;4994153;28;20281;-66
2022/09/18 06:10:36;;;;;;;9.10;1.80;;;11.30;99.90;;;;;;4995045;28;20406;-66
2022/09/18 06:13:03;;;;;;;10.73;1.63;;;11.30;99.90;;;;;;4994753;28;20277;-66
2022/09/18 06:15:29;;;;;;;9.47;1.70;;;11.30;99.90;;;;;;4994353;28;20301;-66
2022/09/18 06:17:54;;;;;;;12.37;1.77;;;11.40;99.90;;;;;;4993801;28;20683;-66
2022/09/18 06:20:20;;;;;;;7.17;1.40;;;11.40;99.90;;;;;;4994658;28;20367;-66
2022/09/18 06:22:46;;;;;;;9.60;1.43;;;11.30;99.90;;;;;;4993772;28;20105;-65
2022/09/18 06:25:12;;;;;;;9.07;1.90;;;11.40;99.90;;;;;;4994096;28;20042;-66
2022/09/18 06:27:37;;;;;;;5.83;1.37;;;11.40;99.90;;;;;;4994017;28;20069;-66
2022/09/18 06:30:04;;;;;;;9.57;1.30;;;11.30;99.90;;;;;;4992811;28;20046;-67
2022/09/18 06:32:30;;;;;;;10.27;1.83;;;11.30;99.90;;;;;;4994581;28;20046;-67
2022/09/18 06:34:56;;;;;;;9.60;1.40;;;11.30;99.90;;;;;;4994366;28;20626;-67
2022/09/18 06:37:22;;;;;;;9.43;1.73;;;11.30;99.90;;;;;;4994487;28;20367;-67
2022/09/18 06:39:47;;;;;;;13.53;2.00;;;11.30;99.90;;;;;;4993223;28;20050;-67
2022/09/18 06:42:15;;;;;;;7.57;1.23;;;11.30;99.90;;;;;;4993810;28;20042;-67
2022/09/18 06:44:40;;;;;;;10.73;1.43;;;11.30;99.90;;;;;;4994318;28;20038;-67
2022/09/18 06:47:06;;;;;;;13.03;2.13;;;11.30;99.90;;;;;;4992803;28;20626;-67
2022/09/18 06:49:32;;;;;;;17.40;2.37;;;11.40;99.90;;;;;;4993847;28;20043;-68
2022/09/18 06:51:58;;;;;;;11.17;1.60;;;11.30;99.90;;;;;;4994849;28;20125;-68
2022/09/18 06:54:24;;;;;;;9.70;2.57;;;11.40;99.90;;;;;;4997664;28;20166;-67
2022/09/18 06:56:49;;;;;;;11.83;1.87;;;11.40;99.90;;;;;;4997701;28;20096;-67
2022/09/18 06:59:15;;;;;;;13.43;1.93;;;11.40;99.90;;;;;;4997561;28;20082;-67
2022/09/18 07:01:41;;;;;;;11.53;1.80;;;11.40;99.90;;;;;;4997571;28;20046;-67
2022/09/18 07:04:06;;;;;;;13.07;1.77;;;11.40;99.90;;;;;;4997253;28;20159;-67
2022/09/18 07:06:32;;;;;;;15.57;2.30;;;11.40;99.90;;;;;;4997540;28;20054;-67
2022/09/18 07:08:58;;;;;;;10.33;1.80;;;11.40;99.90;;;;;;4997749;28;20073;-70
2022/09/18 07:11:23;;;;;;;8.30;1.57;;;11.40;99.90;;;;;;4997969;28;20470;-67
2022/09/18 07:13:50;;;;;;;12.30;1.90;;;11.40;99.90;;;;;;4997086;28;20097;-67
2022/09/18 07:16:16;;;;;;;17.47;2.03;;;11.30;99.90;;;;;;4997268;28;20047;-67
2022/09/18 07:18:42;;;;;;;12.07;1.73;;;11.30;99.90;;;;;;4997064;28;20278;-68
2022/09/18 07:21:08;;;;;;;12.47;1.80;;;11.30;99.90;;;;;;4996820;28;20093;-66
2022/09/18 07:23:34;;;;;;;12.30;2.03;;;11.30;99.90;;;;;;4997291;28;20317;-68
2022/09/18 07:26:01;;;;;;;6.90;1.40;;;11.30;99.90;;;;;;4996156;28;20519;-71
2022/09/18 07:28:27;;;;;;;6.87;1.30;;;11.30;99.90;;;;;;4997066;28;20376;-67
2022/09/18 07:30:53;;;;;;;8.63;1.60;;;11.30;99.90;;;;;;4997091;28;20416;-67
2022/09/18 07:33:18;;;;;;;10.43;1.87;;;11.30;99.90;;;;;;4997050;28;20365;-67
2022/09/18 07:35:44;;;;;;;9.93;1.20;;;11.20;99.90;;;;;;4997103;28;20046;-68
2022/09/18 07:38:10;;;;;;;11.50;1.87;;;11.30;99.90;;;;;;4996079;28;20042;-68
2022/09/18 07:40:36;;;;;;;7.67;2.30;;;11.30;99.90;;;;;;4996303;28;20470;-68
2022/09/18 07:43:07;;;;;;;8.23;1.57;;;11.30;99.90;;;;;;4996963;28;20100;-70
2022/09/18 07:45:34;;;;;;;7.43;1.47;;;11.30;99.90;;;;;;4996654;28;20765;-67
2022/09/18 07:48:04;;;;;;;10.80;1.60;;;11.30;99.90;;;;;;4995811;28;20308;-68
2022/09/18 07:50:30;;;;;;;8.93;1.40;;;11.30;99.90;;;;;;4997385;28;20368;-67
2022/09/18 07:52:58;;;;;;;6.00;1.20;;;11.40;99.90;;;;;;4996490;28;20800;-67
2022/09/18 07:55:25;;;;;;;9.13;1.10;;;11.40;99.90;;;;;;4996647;28;20302;-67
2022/09/18 07:58:00;;;;;;;8.43;1.40;;;11.40;99.90;;;;;;4996966;28;20285;-67
2022/09/18 08:00:29;;;;;;;7.77;1.30;;;11.50;99.90;;;;;;4996945;28;20630;-67
2022/09/18 08:03:20;;;;;;;14.00;2.03;;;11.50;99.90;;;;;;4996389;28;20479;-67
2022/09/18 08:05:46;;;;;;;11.03;1.70;;;11.50;99.90;;;;;;4993713;28;20281;-68
2022/09/18 08:08:14;;;;;;;12.73;1.47;;;11.60;99.90;;;;;;4979284;28;20292;-68
2022/09/18 08:10:42;;;;;;;7.33;1.30;;;11.60;99.90;;;;;;4996460;28;20483;-67
2022/09/18 08:13:08;;;;;;;11.80;2.07;;;;;;;;;;4995141;28;20285;-68
2022/09/18 08:15:37;;;;;;;9.13;1.57;;;11.80;99.90;;;;;;4996248;28;20306;-68
2022/09/18 08:18:04;;;;;;;9.37;1.57;;;11.80;99.90;;;;;;4996401;28;20293;-68
2022/09/18 08:20:29;;;;;;;13.47;1.63;;;11.90;99.90;;;;;;4996254;28;20285;-67
2022/09/18 08:22:55;;;;;;;11.00;2.23;;;11.80;99.90;;;;;;4996224;28;20282;-67
2022/09/18 08:25:22;;;;;;;12.67;2.30;;;11.90;99.90;;;;;;4996199;28;20046;-68
2022/09/18 08:27:47;;;;;;;19.27;2.10;;;11.90;99.90;;;;;;4995111;28;20058;-67
2022/09/18 08:30:15;;;;;;;8.90;1.50;;;11.90;99.90;;;;;;4995761;28;20753;-68
2022/09/18 08:32:41;;;;;;;11.80;1.63;;;11.90;99.90;;;;;;4996557;28;20294;-67
2022/09/18 08:35:09;;;;;;;8.30;1.47;;;11.90;99.90;;;;;;4995957;28;20356;-70
2022/09/18 08:37:36;;;;;;;7.47;1.70;;;;;;;;;;4995973;28;20065;-67
2022/09/18 08:40:03;;;;;;;8.07;2.00;;;12.00;99.90;;;;;;4995819;28;20630;-67
2022/09/18 08:43:06;;;;;;;8.67;1.73;;;12.00;99.90;;;;;;4995732;28;20297;-67
2022/09/18 08:46:03;;;;;;;7.47;1.67;;;12.10;99.90;;;;;;4995832;28;20769;-67
2022/09/18 08:48:34;;;;;;;7.80;1.70;;;12.20;99.90;;;;;;4996070;28;20355;-68
2022/09/18 08:51:37;;;;;;;4.73;1.10;;;12.20;99.90;;;;;;4995764;28;20278;-68
2022/09/18 08:54:23;;;;;;;8.17;1.40;;;12.10;99.90;;;;;;4994821;28;20305;-68
2022/09/18 08:56:51;;;;;;;11.53;1.40;;;12.20;99.90;;;;;;4994381;28;20373;-66
2022/09/18 08:59:48;;;;;;;10.23;1.90;;;12.10;99.90;;;;;;4995487;28;20336;-66
2022/09/18 09:02:40;;;;;;;14.30;2.07;;;12.10;99.90;;;;;;4995631;28;20314;-66
2022/09/18 09:05:20;;;;;;;10.07;1.40;;;12.10;99.90;;;;;;4995466;28;20369;-66
2022/09/18 09:08:01;;;;;;;16.07;1.97;;;12.10;99.90;;;;;;4995903;28;20281;-66
2022/09/18 09:10:33;;;;;;;11.03;1.60;;;12.10;99.90;;;;;;4995278;28;20297;-66
2022/09/18 09:13:04;;;;;;;10.93;1.57;;;12.20;99.90;;;;;;4995272;28;20329;-66
2022/09/18 09:15:38;;;;;;;9.20;1.60;;;12.20;99.90;;;;;;4995466;28;20309;-66
2022/09/18 09:18:16;;;;;;;7.07;1.33;;;12.20;99.90;;;;;;4995679;28;20596;-66
2022/09/18 09:20:53;;;;;;;9.63;1.27;;;12.30;99.90;;;;;;4994971;28;20285;-67
2022/09/18 09:23:28;;;;;;;5.83;1.13;;;12.20;99.90;;;;;;4993697;28;20286;-67
2022/09/18 09:26:00;;;;;;;10.02;1.83;;;12.20;99.90;;;;;;4994087;28;20293;-67
2022/09/18 09:28:50;;;;;;;7.90;1.10;;;12.20;99.90;;;;;;4995340;28;20065;-67
2022/09/18 09:31:21;;;;;;;8.47;1.53;;;12.20;99.90;;;;;;4964344;28;20298;-68
2022/09/18 09:33:58;;;;;;;8.17;1.50;;;12.10;99.90;;;;;;4994635;28;20617;-67
2022/09/18 09:36:28;;;;;;;7.53;1.63;;;12.10;99.90;;;;;;4994694;28;20293;-67
2022/09/18 09:39:05;;;;;;;7.97;1.60;;;12.00;99.90;;;;;;4993551;28;20289;-67
2022/09/18 09:41:33;;;;;;;11.57;2.00;;;12.00;99.90;;;;;;4994649;28;20804;-67
2022/09/18 09:43:59;;;;;;;13.20;2.87;;;12.00;99.90;;;;;;4994627;28;20292;-67
2022/09/18 09:46:25;;;;;;;8.53;1.73;;;12.00;99.90;;;;;;4994500;28;20281;-68
2022/09/18 09:49:00;;;;;;;8.50;1.47;;;11.90;99.90;;;;;;4994500;28;20137;-68
2022/09/18 09:52:02;;;;;;;11.70;2.30;;;11.90;99.90;;;;;;4994755;28;20046;-66
2022/09/18 09:54:30;;;;;;;9.70;2.37;;;11.90;99.90;;;;;;4994966;28;20046;-66
2022/09/18 09:57:11;;;;;;;9.17;1.40;;;11.90;99.90;;;;;;4994279;28;20293;-65
2022/09/18 09:59:51;;;;;;;10.50;1.80;;;11.90;99.90;;;;;;4994410;28;20278;-67
2022/09/18 10:02:27;;;;;;;13.57;2.57;;;11.90;99.90;;;;;;4995056;28;20289;-67
2022/09/18 10:05:24;;;;;;;11.50;1.70;;;11.90;99.90;;;;;;4994774;28;20282;-67
2022/09/18 10:08:09;;;;;;;12.70;2.00;;;11.90;99.90;;;;;;4994988;28;20384;-67
2022/09/18 10:10:44;;;;;;;12.90;2.55;;;11.90;99.90;;;;;;4994982;28;20285;-67
2022/09/18 10:13:24;;;;;;;14.43;1.95;;;11.90;99.90;;;;;;4995293;28;20419;-67
2022/09/18 10:16:07;;;;;;;13.50;3.20;;;11.90;99.90;;;;;;4993240;28;20097;-67
2022/09/18 10:18:38;;;;;;;11.17;1.83;;;11.90;99.90;;;;;;4994078;28;20285;-67
2022/09/18 10:21:12;;;;;;;14.20;1.80;;;12.00;99.90;;;;;;4994137;28;20376;-67
2022/09/18 10:23:40;;;;;;;11.77;2.30;;;12.00;99.90;;;;;;4994217;28;20288;-67
2022/09/18 10:26:12;;;;;;;9.07;1.80;;;12.00;99.90;;;;;;4993819;28;20283;-67
2022/09/18 10:28:37;;;;;;;12.17;1.93;;;12.00;99.90;;;;;;4993300;28;20301;-67
2022/09/18 10:31:11;;;;;;;11.40;1.70;;;12.10;99.90;;;;;;4993942;28;20296;-67
2022/09/18 10:33:43;;;;;;;11.27;2.00;;;12.10;99.90;;;;;;4992628;28;20058;-67
2022/09/18 10:36:15;;;;;;;12.37;2.37;;;12.20;99.90;;;;;;4992822;28;20618;-67
2022/09/18 10:38:41;;;;;;;12.43;2.00;;;12.20;99.90;;;;;;4993928;28;20838;-66
2022/09/18 10:41:16;;;;;;;11.63;1.97;;;12.30;99.90;;;;;;4993848;28;20338;-67
2022/09/18 10:43:57;;;;;;;10.98;1.88;;;12.30;99.90;;;;;;4993822;28;20293;-67
2022/09/18 10:46:29;;;;;;;14.73;1.87;;;12.40;99.90;;;;;;4994317;28;20038;-67
2022/09/18 10:48:57;;;;;;;9.37;2.10;;;12.40;99.90;;;;;;4993843;28;20278;-66
2022/09/18 10:51:28;;;;;;;10.53;1.73;;;12.40;99.90;;;;;;4993742;28;20297;-67
2022/09/18 10:54:13;;;;;;;9.93;1.93;;;12.50;99.90;;;;;;4993752;28;20780;-67
2022/09/18 10:56:39;;;;;;;14.77;2.42;;;12.60;99.90;;;;;;4994222;28;20293;-67
2022/09/18 10:59:28;;;;;;;11.27;1.87;;;12.60;99.90;;;;;;4993386;28;20104;-67
2022/09/18 11:02:02;;;;;;;14.73;2.37;;;12.70;99.90;;;;;;4985956;28;20054;-67
2022/09/18 11:04:29;;;;;;;12.80;1.90;;;12.70;99.90;;;;;;4992945;28;20308;-67
2022/09/18 11:06:55;;;;;;;13.70;2.33;;;12.70;99.90;;;;;;4993617;28;20054;-67
2022/09/18 11:09:29;;;;;;;15.03;2.40;;;12.70;99.90;;;;;;4993634;28;20288;-67
2022/09/18 11:11:55;;;;;;;13.45;2.20;;;12.80;99.90;;;;;;4992432;28;20393;-68
2022/09/18 11:14:30;;;;;;;12.27;2.00;;;12.80;99.90;;;;;;4992336;28;20137;-67
2022/09/18 11:16:59;;;;;;;16.42;2.67;;;12.90;99.90;;;;;;4993649;28;20502;-68
2022/09/18 11:19:38;;;;;;;12.67;2.70;;;12.90;99.90;;;;;;4992612;28;20525;-68
2022/09/18 11:22:06;;;;;;;12.57;2.43;;;13.00;99.90;;;;;;4993634;28;20294;-67
2022/09/18 11:24:34;;;;;;;12.33;2.20;;;13.00;99.90;;;;;;4992820;28;20373;-68
2022/09/18 11:27:21;;;;;;;11.57;2.80;;;13.10;99.90;;;;;;4993337;28;20351;-67
2022/09/18 11:29:47;;;;;;;12.47;3.43;;;13.10;99.90;;;;;;4993239;28;20345;-67
2022/09/18 11:32:20;;;;;;;11.57;2.40;;;13.20;99.90;;;;;;4993214;28;20305;-66
2022/09/18 11:34:50;;;;;;;8.37;1.77;;;13.30;99.90;;;;;;4992464;28;20750;-66
2022/09/18 11:37:34;;;;;;;11.87;2.20;;;13.40;99.90;;;;;;4993919;28;20613;-67
2022/09/18 11:40:07;;;;;;;15.90;2.40;;;13.50;99.90;;;;;;4995689;28;20278;-67
2022/09/18 11:42:44;;;;;;;13.57;2.73;;;13.60;99.90;;;;;;4996933;28;20368;-67
2022/09/18 11:45:22;;;;;;;9.50;2.10;;;13.70;99.90;;;;;;4996882;28;20413;-67
2022/09/18 11:47:56;;;;;;;13.53;2.37;;;13.70;99.90;;;;;;4996789;28;20296;-66
2022/09/18 11:50:31;;;;;;;15.07;2.23;;;13.90;99.90;;;;;;4997269;28;20320;-66
2022/09/18 11:53:02;;;;;;;10.93;1.90;;;13.80;99.90;;;;;;4996990;28;20625;-67
2022/09/18 11:55:47;;;;;;;10.33;2.17;;;13.80;99.90;;;;;;4996319;28;20793;-70
2022/09/18 11:58:13;;;;;;;11.70;3.00;;;13.80;99.90;;;;;;4997063;28;20491;-67
2022/09/18 12:01:02;;;;;;;8.13;1.77;;;13.80;99.90;;;;;;4996492;28;20372;-67
2022/09/18 12:03:33;;;;;;;9.10;1.63;;;13.70;99.90;;;;;;4965918;28;20054;-67
2022/09/18 12:06:51;;;;;;;6.57;1.30;;;13.70;99.90;;;;;;4997079;28;20269;-67
2022/09/18 12:09:30;;;;;;;6.67;1.80;;;13.70;99.90;;;;;;4971815;28;20301;-67
2022/09/18 12:12:05;;;;;;;7.53;1.60;;;13.60;99.90;;;;;;4997149;28;20372;-67
2022/09/18 12:14:40;;;;;;;7.18;1.33;;;13.60;99.90;;;;;;4996230;28;20285;-67
2022/09/18 12:17:31;;;;;;;8.70;2.53;;;13.50;99.90;;;;;;4996396;28;20057;-67
2022/09/18 12:20:05;;;;;;;10.83;3.43;;;13.50;99.90;;;;;;4996202;28;20058;-67
2022/09/18 12:22:43;;;;;;;8.13;1.87;;;13.50;99.90;;;;;;4996941;28;20284;-71
2022/09/18 12:25:17;;;;;;;10.40;2.10;;;13.50;99.90;;;;;;4996152;28;20309;-67
2022/09/18 12:27:43;;;;;;;9.27;2.00;;;13.50;99.90;;;;;;4996736;28;20301;-66
2022/09/18 12:30:18;;;;;;;8.10;1.63;;;13.50;99.90;;;;;;4996075;28;20289;-66
2022/09/18 12:33:13;;;;;;;7.93;2.10;;;13.50;99.90;;;;;;4996742;28;20050;-67
2022/09/18 12:36:04;;;;;;;13.93;2.37;;;13.50;99.90;;;;;;4995880;28;20355;-67
2022/09/18 12:39:14;;;;;;;9.57;2.47;;;13.50;99.90;;;;;;4996303;28;20332;-66
2022/09/18 12:41:49;;;;;;;7.70;2.20;;;13.50;99.90;;;;;;4967801;28;20336;-66
2022/09/18 12:44:24;;;;;;;;;;;13.50;99.90;;;;;;4996376;28;20364;-66
2022/09/18 12:47:01;;;;;;;11.57;1.90;;;13.50;99.90;;;;;;4995935;28;19961;-66
2022/09/18 12:49:30;;;;;;;8.43;2.00;;;13.50;99.90;;;;;;4995762;28;20368;-66
2022/09/18 12:52:43;;;;;;;10.83;2.23;;;13.50;99.90;;;;;;4995457;28;20297;-66
2022/09/18 12:55:21;;;;;;;11.50;1.90;;;13.50;99.90;;;;;;4935152;29;20311;-66
2022/09/18 12:58:17;;;;;;;11.47;2.00;;;13.50;99.90;;;;;;4935738;29;20291;-67
2022/09/18 13:00:46;;;;;;;;;;;13.60;99.90;;;;;;4981217;28;20652;-67
2022/09/18 13:03:21;;;;;;;13.30;2.20;;;13.60;99.90;;;;;;4995307;28;19922;-67
2022/09/18 13:05:55;;;;;;;;;;;13.50;99.90;;;;;;4995746;28;20715;-67
2022/09/18 13:08:32;;;;;;;8.23;1.70;;;13.60;99.90;;;;;;4996004;28;20000;-67